Time;durP1;ratioP1;P1;durP2;ratioP2;P2;SDS_P1;SDS_P2;PMS_P1;PMS_P2;Temp;Humidity;BMP_temperature;BMP_pressure;BME280_temperature;BME280_humidity;BME280_pressure;Samples;Min_cycle;Max_cycle;Signal;HPM_P1;HPM_P2
2021/10/06 00:00:24;;;;;;;0.30;0.20;;;;;;;13.11;100.00;99926.81;5055700;28;20505;-55
2021/10/06 00:02:51;;;;;;;0.30;0.20;;;;;;;13.13;100.00;99932.94;5055663;28;20505;-55
2021/10/06 00:05:18;;;;;;;0.30;0.20;;;;;;;13.09;100.00;99933.16;5055490;28;20501;-55
2021/10/06 00:07:45;;;;;;;0.30;0.20;;;;;;;13.20;100.00;99934.44;5055317;28;20943;-55
2021/10/06 00:10:13;;;;;;;0.40;0.30;;;;;;;13.27;100.00;99937.69;5055286;28;20501;-54
2021/10/06 00:12:39;;;;;;;0.30;0.20;;;;;;;13.11;100.00;99953.50;5055103;28;20925;-54
2021/10/06 00:15:09;;;;;;;0.30;0.20;;;;;;;13.06;100.00;99947.50;5055640;28;20446;-55
2021/10/06 00:17:36;;;;;;;0.30;0.20;;;;;;;13.12;100.00;99951.69;5044223;28;20500;-55
2021/10/06 00:20:06;;;;;;;0.30;0.20;;;;;;;13.11;100.00;99936.63;5055096;28;20497;-55
2021/10/06 00:22:33;;;;;;;0.30;0.20;;;;;;;13.09;100.00;99950.03;5055014;28;20500;-55
2021/10/06 00:25:00;;;;;;;0.30;0.20;;;;;;;12.96;100.00;99946.16;5054967;28;20522;-55
2021/10/06 00:27:26;;;;;;;0.30;0.20;;;;;;;12.88;100.00;99953.63;5055010;28;20504;-54
2021/10/06 00:29:53;;;;;;;0.30;0.20;;;;;;;12.75;100.00;99946.19;5054940;28;20498;-55
2021/10/06 00:32:20;;;;;;;0.30;0.20;;;;;;;12.81;100.00;99957.50;5028609;28;20485;-55
2021/10/06 00:34:47;;;;;;;0.30;0.20;;;;;;;12.84;100.00;99958.22;5054805;28;20854;-54
2021/10/06 00:37:14;;;;;;;0.30;0.20;;;;;;;12.71;100.00;99954.34;5055013;28;20606;-55
2021/10/06 00:39:41;;;;;;;0.30;0.20;;;;;;;12.54;100.00;99964.88;5054189;28;20439;-55
2021/10/06 00:42:08;;;;;;;0.30;0.20;;;;;;;12.68;100.00;99974.03;5054213;28;20484;-52
2021/10/06 00:44:37;;;;;;;0.30;0.20;;;;;;;12.57;100.00;99978.94;5054795;28;20490;-53
2021/10/06 00:47:09;;;;;;;0.30;0.20;;;;;;;12.49;100.00;99982.88;5053005;28;20446;-53
2021/10/06 00:49:36;;;;;;;0.30;0.20;;;;;;;12.61;100.00;99987.66;5054474;28;20852;-53
2021/10/06 00:52:03;;;;;;;0.40;0.30;;;;;;;12.65;100.00;99981.28;5054545;28;20500;-52
2021/10/06 00:54:30;;;;;;;0.30;0.20;;;;;;;12.61;100.00;99985.00;5054455;28;20901;-52
2021/10/06 00:56:57;;;;;;;0.30;0.20;;;;;;;12.61;100.00;99982.34;5054765;28;20475;-52
2021/10/06 00:59:24;;;;;;;0.30;0.20;;;;;;;12.58;100.00;99991.34;5054461;28;20454;-53
2021/10/06 01:01:51;;;;;;;0.30;0.20;;;;;;;12.59;100.00;99994.88;5054403;28;20458;-53
2021/10/06 01:04:18;;;;;;;0.30;0.20;;;;;;;12.61;100.00;99999.22;5054205;28;20967;-53
2021/10/06 01:06:45;;;;;;;0.30;0.20;;;;;;;12.62;100.00;99992.97;5054321;28;20447;-53
2021/10/06 01:09:12;;;;;;;0.30;0.20;;;;;;;12.67;100.00;99990.09;5050583;28;20454;-53
2021/10/06 01:11:39;;;;;;;0.30;0.20;;;;;;;12.70;100.00;99993.50;5043580;28;20494;-53
2021/10/06 01:14:07;;;;;;;0.30;0.20;;;;;;;12.73;100.00;99988.03;5054406;28;20450;-53
2021/10/06 01:16:35;;;;;;;0.30;0.20;;;;;;;12.75;100.00;99996.00;5046001;28;20502;-53
2021/10/06 01:19:02;;;;;;;0.30;0.20;;;;;;;12.78;100.00;100003.84;5050865;28;20457;-53
2021/10/06 01:21:29;;;;;;;0.30;0.20;;;;;;;12.73;100.00;99998.69;5054000;28;20509;-53
2021/10/06 01:23:56;;;;;;;0.30;0.20;;;;;;;12.77;100.00;100001.25;5054180;28;20455;-53
2021/10/06 01:26:23;;;;;;;0.30;0.20;;;;;;;12.82;100.00;100012.59;5053873;28;20486;-53
2021/10/06 01:28:54;;;;;;;0.30;0.20;;;;;;;12.98;100.00;100013.66;5054130;28;20835;-52
2021/10/06 01:31:27;;;;;;;0.30;0.20;;;;;;;12.95;100.00;100012.00;5053869;28;20471;-53
2021/10/06 01:33:55;;;;;;;0.30;0.20;;;;;;;12.92;100.00;100020.13;5053680;28;20924;-53
2021/10/06 01:36:23;;;;;;;0.30;0.20;;;;;;;12.93;100.00;100021.00;5053985;28;20470;-53
2021/10/06 01:38:49;;;;;;;0.30;0.20;;;;;;;12.89;100.00;100017.59;5053671;28;20498;-53
2021/10/06 01:41:16;;;;;;;0.30;0.20;;;;;;;12.85;100.00;100017.78;5053582;28;20474;-52
2021/10/06 01:43:43;;;;;;;0.30;0.20;;;;;;;12.88;100.00;100028.31;5053500;28;20451;-53
2021/10/06 01:46:10;;;;;;;0.30;0.20;;;;;;;12.88;100.00;100023.84;5051613;28;20486;-53
2021/10/06 01:48:37;;;;;;;0.30;0.20;;;;;;;13.01;100.00;100034.88;5027290;28;20965;-53
2021/10/06 01:51:04;;;;;;;0.30;0.20;;;;;;;13.00;100.00;100027.78;5053583;28;20470;-53
2021/10/06 01:53:39;;;;;;;0.30;0.20;;;;;;;13.01;100.00;100024.19;5053414;28;20490;-52
2021/10/06 01:56:06;;;;;;;0.30;0.20;;;;;;;13.10;100.00;100028.28;5053432;28;20498;-53
2021/10/06 01:58:33;;;;;;;0.30;0.20;;;;;;;13.01;100.00;100029.53;5053413;28;20451;-53
2021/10/06 02:01:01;;;;;;;0.30;0.20;;;;;;;13.12;100.00;100034.41;5053016;28;20506;-53
2021/10/06 02:03:29;;;;;;;0.30;0.20;;;;;;;13.05;100.00;100034.69;5053166;28;20447;-53
2021/10/06 02:05:58;;;;;;;0.30;0.20;;;;;;;13.08;100.00;100031.03;5053001;28;20536;-53
2021/10/06 02:08:24;;;;;;;0.30;0.20;;;;;;;13.27;100.00;100034.66;5053130;28;20442;-54
2021/10/06 02:10:51;;;;;;;0.30;0.20;;;;;;;13.20;100.00;100030.53;5052857;28;20521;-53
2021/10/06 02:13:18;;;;;;;0.30;0.20;;;;;;;13.27;100.00;100037.31;5052793;28;20991;-53
2021/10/06 02:15:47;;;;;;;0.30;0.20;;;;;;;13.23;100.00;100025.03;5050708;28;20454;-53
2021/10/06 02:18:14;;;;;;;0.30;0.20;;;;;;;13.33;100.00;100028.19;5043228;28;20451;-53
2021/10/06 02:20:41;;;;;;;0.30;0.20;;;;;;;13.23;100.00;100029.53;5052522;28;20529;-53
2021/10/06 02:23:08;;;;;;;0.30;0.20;;;;;;;13.24;100.00;100021.44;5051738;28;20478;-53
2021/10/06 02:25:35;;;;;;;0.30;0.20;;;;;;;13.14;100.00;100036.06;5052574;28;20483;-53
2021/10/06 02:28:02;;;;;;;0.30;0.20;;;;;;;13.17;100.00;100027.09;5051440;28;20475;-53
2021/10/06 02:30:29;;;;;;;0.30;0.20;;;;;;;13.09;100.00;100034.56;5052632;28;20466;-54
2021/10/06 02:32:56;;;;;;;0.30;0.20;;;;;;;13.02;100.00;100032.16;5052681;28;20451;-52
2021/10/06 02:35:24;;;;;;;0.60;0.60;;;;;;;13.03;100.00;100038.38;5052395;28;20450;-53
2021/10/06 02:37:51;;;;;;;0.30;0.20;;;;;;;13.10;100.00;100034.47;5052705;28;20474;-53
2021/10/06 02:40:18;;;;;;;0.30;0.20;;;;;;;13.26;100.00;100035.59;5052335;28;20532;-53
2021/10/06 02:42:46;;;;;;;0.57;0.57;;;;;;;13.04;100.00;100046.31;5052444;28;20808;-54
2021/10/06 02:45:15;;;;;;;0.30;0.20;;;;;;;12.99;100.00;100037.59;5052566;28;20519;-53
2021/10/06 02:47:45;;;;;;;0.30;0.20;;;;;;;13.09;100.00;100037.22;5050423;28;20451;-53
2021/10/06 02:50:17;;;;;;;0.30;0.20;;;;;;;13.02;100.00;100037.50;5052206;28;20467;-53
2021/10/06 02:52:43;;;;;;;0.30;0.20;;;;;;;13.00;100.00;100038.47;5052319;28;20482;-54
2021/10/06 02:55:10;;;;;;;0.30;0.30;;;;;;;13.12;100.00;100034.41;5051169;28;20489;-53
2021/10/06 02:57:37;;;;;;;0.40;0.30;;;;;;;12.98;100.00;100049.22;5052146;28;20768;-53
2021/10/06 03:00:07;;;;;;;0.30;0.20;;;;;;;12.96;100.00;100051.09;5052392;28;20503;-53
2021/10/06 03:02:35;;;;;;;0.30;0.20;;;;;;;12.85;100.00;100063.13;5052139;28;20486;-53
2021/10/06 03:05:03;;;;;;;0.30;0.20;;;;;;;12.89;100.00;100054.97;5051107;28;20920;-53
2021/10/06 03:07:30;;;;;;;0.30;0.20;;;;;;;12.87;100.00;100053.25;5051952;28;20450;-54
2021/10/06 03:09:57;;;;;;;0.30;0.20;;;;;;;12.79;100.00;100052.72;5052118;28;20525;-53
2021/10/06 03:12:24;;;;;;;0.40;0.30;;;;;;;12.74;100.00;100050.22;5052173;28;20447;-53
2021/10/06 03:14:51;;;;;;;0.30;0.20;;;;;;;12.64;100.00;100057.75;5052147;28;20859;-54
2021/10/06 03:17:18;;;;;;;0.30;0.20;;;;;;;12.78;100.00;100056.31;5039287;28;20459;-54
2021/10/06 03:19:45;;;;;;;0.30;0.20;;;;;;;12.66;100.00;100058.56;5051961;28;20519;-52
2021/10/06 03:22:12;;;;;;;0.30;0.30;;;;;;;12.59;100.00;100057.06;5051816;28;20876;-53
2021/10/06 03:24:39;;;;;;;0.30;0.20;;;;;;;12.67;100.00;100064.75;5052008;28;20991;-53
2021/10/06 03:27:05;;;;;;;0.30;0.20;;;;;;;12.62;100.00;100059.63;5052011;28;20514;-53
2021/10/06 03:29:36;;;;;;;0.30;0.20;;;;;;;12.68;100.00;100067.38;5051881;28;20478;-53
2021/10/06 03:32:03;;;;;;;0.30;0.20;;;;;;;12.68;100.00;100070.03;5052734;28;20447;-53
2021/10/06 03:34:30;;;;;;;0.30;0.20;;;;;;;12.67;100.00;100067.44;5056091;28;20471;-53
2021/10/06 03:36:57;;;;;;;0.30;0.20;;;;;;;12.66;100.00;100074.56;5055833;28;20443;-53
2021/10/06 03:39:24;;;;;;;0.30;0.20;;;;;;;12.54;100.00;100068.84;5056038;28;20482;-53
2021/10/06 03:41:51;;;;;;;0.30;0.20;;;;;;;12.75;100.00;100066.19;5055974;28;20490;-54
2021/10/06 03:44:18;;;;;;;0.30;0.20;;;;;;;12.69;100.00;100071.75;5055918;28;20450;-53
2021/10/06 03:46:45;;;;;;;0.30;0.20;;;;;;;12.60;100.00;100076.59;5053215;28;20544;-53
2021/10/06 03:49:12;;;;;;;0.30;0.20;;;;;;;12.41;100.00;100073.81;5055662;28;20446;-53
2021/10/06 03:51:39;;;;;;;0.30;0.20;;;;;;;12.26;100.00;100077.94;5055463;28;20528;-52
2021/10/06 03:54:06;;;;;;;0.30;0.20;;;;;;;12.40;100.00;100080.94;5055920;28;20478;-53
2021/10/06 03:56:36;;;;;;;0.30;0.30;;;;;;;12.29;100.00;100082.28;5054622;28;20449;-53
2021/10/06 03:59:03;;;;;;;0.30;0.20;;;;;;;12.22;100.00;100079.00;5055923;28;20451;-54
2021/10/06 04:01:31;;;;;;;0.30;0.20;;;;;;;12.13;100.00;100082.88;5055777;28;20463;-53
2021/10/06 04:03:59;;;;;;;0.30;0.20;;;;;;;12.07;100.00;100099.09;5054255;28;20505;-52
2021/10/06 04:06:26;;;;;;;0.30;0.20;;;;;;;12.06;100.00;100083.16;5055210;28;20490;-53
2021/10/06 04:08:53;;;;;;;0.30;0.20;;;;;;;11.98;100.00;100096.78;5055684;28;20852;-53
2021/10/06 04:11:19;;;;;;;0.30;0.20;;;;;;;12.08;100.00;100089.31;5028996;28;20497;-52
2021/10/06 04:13:46;;;;;;;1.13;1.13;;;;;;;12.01;100.00;100106.44;5055124;28;20489;-53
2021/10/06 04:16:13;;;;;;;0.30;0.20;;;;;;;11.83;100.00;100100.00;5050028;28;20518;-52
2021/10/06 04:18:40;;;;;;;0.30;0.20;;;;;;;12.00;100.00;100102.03;5049130;28;20450;-53
2021/10/06 04:21:07;;;;;;;0.30;0.20;;;;;;;11.91;100.00;100103.25;5055411;28;20503;-53
2021/10/06 04:23:34;;;;;;;0.30;0.20;;;;;;;11.82;100.00;100108.94;5055198;28;20516;-53
2021/10/06 04:26:01;;;;;;;0.30;0.20;;;;;;;11.82;100.00;100106.28;5055082;28;20490;-52
2021/10/06 04:28:28;;;;;;;0.53;0.53;;;;;;;11.83;100.00;100110.66;5055042;28;20454;-52
2021/10/06 04:30:55;;;;;;;0.30;0.20;;;;;;;11.85;100.00;100116.81;5054937;28;20988;-52
2021/10/06 04:33:21;;;;;;;0.30;0.20;;;;;;;12.00;100.00;100120.69;5054897;28;20446;-53
2021/10/06 04:35:48;;;;;;;0.30;0.20;;;;;;;11.95;100.00;100115.53;5055123;28;20909;-52
2021/10/06 04:38:15;;;;;;;0.40;0.30;;;;;;;12.02;100.00;100121.50;5053879;28;20454;-52
2021/10/06 04:40:42;;;;;;;0.30;0.20;;;;;;;12.00;100.00;100113.56;5054757;28;20506;-52
2021/10/06 04:43:10;;;;;;;0.30;0.20;;;;;;;12.12;100.00;100115.78;5053873;28;20450;-51
2021/10/06 04:45:38;;;;;;;0.30;0.20;;;;;;;11.97;100.00;100116.34;5054124;28;20490;-53
2021/10/06 04:48:06;;;;;;;0.30;0.20;;;;;;;12.01;100.00;100112.63;5051704;28;20485;-53
2021/10/06 04:50:33;;;;;;;0.30;0.20;;;;;;;12.00;100.00;100118.03;5054577;28;20561;-52
2021/10/06 04:53:00;;;;;;;0.80;0.80;;;;;;;11.95;100.00;100126.19;5054483;28;20451;-52
2021/10/06 04:55:27;;;;;;;0.30;0.20;;;;;;;11.97;100.00;100123.47;5054491;28;20483;-53
2021/10/06 04:57:54;;;;;;;1.30;1.30;;;;;;;11.99;100.00;100133.16;5054379;28;20446;-52
2021/10/06 05:00:21;;;;;;;0.30;0.20;;;;;;;11.94;100.00;100132.47;5054703;28;20556;-52
2021/10/06 05:02:49;;;;;;;0.30;0.20;;;;;;;11.96;100.00;100124.41;5054496;28;20482;-52
2021/10/06 05:05:16;;;;;;;0.57;0.57;;;;;;;11.93;100.00;100117.41;5054368;28;20502;-53
2021/10/06 05:07:42;;;;;;;0.30;0.20;;;;;;;11.90;100.00;100114.81;5054184;28;20596;-53
2021/10/06 05:10:09;;;;;;;0.30;0.20;;;;;;;11.98;100.00;100122.56;5054435;28;20557;-52
2021/10/06 05:12:36;;;;;;;0.43;0.40;;;;;;;11.97;100.00;100108.38;5054122;28;20447;-52
2021/10/06 05:15:04;;;;;;;0.30;0.20;;;;;;;11.86;100.00;100107.88;5054501;28;20884;-54
2021/10/06 05:17:31;;;;;;;0.30;0.20;;;;;;;11.84;100.00;100118.59;5042248;28;20971;-53
2021/10/06 05:19:57;;;;;;;0.30;0.20;;;;;;;11.84;100.00;100120.41;5054287;28;20517;-53
2021/10/06 05:22:24;;;;;;;0.30;0.20;;;;;;;11.90;100.00;100125.47;5053983;28;20491;-52
2021/10/06 05:24:51;;;;;;;0.30;0.20;;;;;;;11.80;100.00;100124.09;5054161;28;20474;-52
2021/10/06 05:27:18;;;;;;;0.30;0.20;;;;;;;11.83;100.00;100135.50;5053852;28;20487;-53
2021/10/06 05:29:45;;;;;;;0.30;0.20;;;;;;;11.69;100.00;100135.09;5053973;28;21193;-52
2021/10/06 05:32:12;;;;;;;0.30;0.20;;;;;;;11.72;100.00;100134.13;5054032;28;20447;-53
2021/10/06 05:34:39;;;;;;;0.30;0.20;;;;;;;11.68;100.00;100143.16;5054346;28;20513;-53
2021/10/06 05:37:06;;;;;;;0.30;0.20;;;;;;;11.65;100.00;100143.22;5053719;28;20443;-52
2021/10/06 05:39:32;;;;;;;0.30;0.20;;;;;;;11.65;100.00;100151.22;5053655;28;20572;-53
2021/10/06 05:41:59;;;;;;;0.87;0.87;;;;;;;11.69;100.00;100155.53;5053597;28;20487;-52
2021/10/06 05:44:29;;;;;;;0.30;0.20;;;;;;;11.76;100.00;100147.25;5053921;28;20455;-53
2021/10/06 05:46:56;;;;;;;0.40;0.30;;;;;;;11.73;100.00;100147.38;5050824;28;20486;-53
2021/10/06 05:49:23;;;;;;;0.30;0.20;;;;;;;11.84;100.00;100158.53;5053881;28;20493;-52
2021/10/06 05:51:50;;;;;;;0.30;0.20;;;;;;;11.84;100.00;100152.34;5053376;28;21087;-52
2021/10/06 05:54:17;;;;;;;0.30;0.20;;;;;;;11.97;100.00;100168.75;5053416;28;20520;-52
2021/10/06 05:56:44;;;;;;;0.30;0.20;;;;;;;12.00;100.00;100168.66;5053086;28;20863;-52
2021/10/06 05:59:10;;;;;;;0.30;0.20;;;;;;;12.00;100.00;100168.66;5053382;28;20481;-52
2021/10/06 06:01:38;;;;;;;0.30;0.20;;;;;;;12.07;100.00;100168.38;5053263;28;20509;-53
2021/10/06 06:04:05;;;;;;;0.30;0.20;;;;;;;12.09;100.00;100171.84;5053503;28;20443;-52
2021/10/06 06:06:31;;;;;;;0.30;0.20;;;;;;;12.30;100.00;100170.16;5053603;28;20494;-52
2021/10/06 06:08:58;;;;;;;0.30;0.20;;;;;;;12.20;100.00;100173.22;5053168;28;20446;-52
2021/10/06 06:11:26;;;;;;;0.40;0.30;;;;;;;12.32;100.00;100173.63;5053414;28;20502;-53
2021/10/06 06:13:53;;;;;;;0.30;0.20;;;;;;;12.52;100.00;100166.69;5052998;28;21002;-53
2021/10/06 06:16:21;;;;;;;0.30;0.20;;;;;;;12.37;100.00;100173.50;5047156;28;20460;-52
2021/10/06 06:18:47;;;;;;;0.30;0.20;;;;;;;12.44;100.00;100169.66;5047889;28;20995;-52
2021/10/06 06:21:14;;;;;;;0.30;0.20;;;;;;;12.52;100.00;100191.56;5052956;28;20521;-52
2021/10/06 06:23:41;;;;;;;0.30;0.20;;;;;;;12.69;100.00;100183.78;5052819;28;20963;-52
2021/10/06 06:26:09;;;;;;;0.30;0.20;;;;;;;12.60;100.00;100194.78;5052971;28;20518;-52
2021/10/06 06:28:38;;;;;;;0.30;0.20;;;;;;;12.59;100.00;100203.72;5052776;28;20485;-53
2021/10/06 06:31:06;;;;;;;0.30;0.20;;;;;;;12.61;100.00;100207.22;5052739;28;20872;-53
2021/10/06 06:33:34;;;;;;;0.57;0.57;;;;;;;12.98;100.00;100206.63;5052589;28;20454;-53
2021/10/06 06:36:01;;;;;;;0.30;0.20;;;;;;;12.96;100.00;100208.50;5052711;28;20451;-52
2021/10/06 06:38:28;;;;;;;0.30;0.20;;;;;;;13.00;100.00;100214.56;5052653;28;20909;-54
2021/10/06 06:40:55;;;;;;;0.30;0.20;;;;;;;12.77;100.00;100209.28;5053162;28;20522;-54
2021/10/06 06:43:22;;;;;;;0.30;0.20;;;;;;;12.89;100.00;100222.16;5052512;28;20517;-55
2021/10/06 06:45:49;;;;;;;0.30;0.20;;;;;;;12.70;100.00;100225.50;5052714;28;20482;-55
2021/10/06 06:48:16;;;;;;;0.30;0.20;;;;;;;12.79;100.00;100218.09;5050521;28;20509;-54
2021/10/06 06:50:50;;;;;;;0.30;0.20;;;;;;;12.80;100.00;100222.50;5052646;28;20502;-55
2021/10/06 06:53:17;;;;;;;0.30;0.20;;;;;;;12.99;100.00;100229.72;5052722;28;20469;-54
2021/10/06 06:55:46;;;;;;;0.30;0.20;;;;;;;12.99;100.00;100229.72;5052419;28;20482;-55
2021/10/06 06:58:13;;;;;;;0.30;0.20;;;;;;;13.04;100.00;100240.22;5052389;28;20546;-55
2021/10/06 07:00:40;;;;;;;0.30;0.20;;;;;;;13.07;100.00;100236.56;5052226;28;20466;-55
2021/10/06 07:03:07;;;;;;;0.30;0.20;;;;;;;13.15;100.00;100237.09;5052157;28;20486;-55
2021/10/06 07:05:34;;;;;;;0.30;0.20;;;;;;;13.27;100.00;100245.53;5052297;28;20496;-55
2021/10/06 07:08:02;;;;;;;0.30;0.20;;;;;;;13.23;100.00;100243.06;5051333;28;20522;-55
2021/10/06 07:10:30;;;;;;;0.83;0.77;;;;;;;13.51;100.00;100249.00;5052160;28;20991;-55
2021/10/06 07:12:57;;;;;;;0.30;0.20;;;;;;;13.29;100.00;100243.69;5052169;28;20828;-54
2021/10/06 07:15:25;;;;;;;0.30;0.20;;;;;;;13.39;100.00;100252.19;5052041;28;20501;-55
2021/10/06 07:17:52;;;;;;;0.30;0.20;;;;;;;13.50;100.00;100252.63;5040548;28;20951;-55
2021/10/06 07:20:19;;;;;;;0.30;0.20;;;;;;;13.27;100.00;100252.66;5051926;28;20521;-54
2021/10/06 07:22:47;;;;;;;0.30;0.30;;;;;;;13.23;100.00;100253.72;5052188;28;20451;-55
2021/10/06 07:25:17;;;;;;;0.30;0.20;;;;;;;13.19;100.00;100253.00;5051965;28;20520;-55
2021/10/06 07:27:44;;;;;;;0.30;0.20;;;;;;;13.19;100.00;100257.47;5052512;28;20971;-54
2021/10/06 07:30:12;;;;;;;0.30;0.20;;;;;;;13.44;100.00;100255.56;5051691;28;21060;-55
2021/10/06 07:32:40;;;;;;;0.63;0.63;;;;;;;13.26;100.00;100249.13;5052216;28;20505;-55
2021/10/06 07:35:08;;;;;;;0.30;0.20;;;;;;;13.30;100.00;100239.22;5051878;28;20496;-55
2021/10/06 07:37:50;;;;;;;0.30;0.20;;;;;;;13.52;100.00;100249.88;5052039;28;20446;-54
2021/10/06 07:40:17;;;;;;;0.30;0.20;;;;;;;13.43;100.00;100266.25;5051545;28;21025;-55
2021/10/06 07:42:44;;;;;;;0.30;0.20;;;;;;;13.25;100.00;100257.22;5051947;28;20796;-54
2021/10/06 07:45:11;;;;;;;0.30;0.20;;;;;;;13.31;100.00;100265.00;5051993;28;20955;-55
2021/10/06 07:47:38;;;;;;;0.30;0.20;;;;;;;13.58;100.00;100263.00;5049323;28;20490;-54
2021/10/06 07:50:06;;;;;;;0.30;0.20;;;;;;;13.59;100.00;100256.72;5051771;28;20887;-53
2021/10/06 07:52:33;;;;;;;0.67;0.67;;;;;;;13.56;100.00;100260.34;5051666;28;20860;-54
2021/10/06 07:55:00;;;;;;;0.30;0.20;;;;;;;13.50;100.00;100273.09;5051523;28;21061;-54
2021/10/06 07:57:27;;;;;;;0.30;0.20;;;;;;;13.69;100.00;100271.41;5051836;28;20471;-54
2021/10/06 07:59:54;;;;;;;0.30;0.27;;;;;;;13.80;100.00;100273.63;5051661;28;20467;-54
2021/10/06 08:02:23;;;;;;;0.30;0.20;;;;;;;13.72;100.00;100273.97;5051897;28;20504;-54
2021/10/06 08:04:50;;;;;;;0.30;0.20;;;;;;;13.76;100.00;100275.56;5051704;28;20526;-54
2021/10/06 08:07:17;;;;;;;0.30;0.20;;;;;;;13.71;99.70;100272.25;5051562;28;21003;-54
2021/10/06 08:09:44;;;;;;;0.57;0.57;;;;;;;13.82;99.79;100277.97;5041197;28;20480;-54
2021/10/06 08:12:11;;;;;;;0.30;0.20;;;;;;;13.90;99.71;100280.34;5030628;28;20525;-54
2021/10/06 08:14:38;;;;;;;0.30;0.30;;;;;;;14.12;98.87;100289.19;5051487;28;20455;-54
2021/10/06 08:17:05;;;;;;;0.30;0.20;;;;;;;13.97;98.37;100295.16;5040396;28;20968;-54
2021/10/06 08:19:32;;;;;;;0.30;0.20;;;;;;;14.17;95.76;100299.66;5054634;28;20913;-54
2021/10/06 08:21:59;;;;;;;0.30;0.20;;;;;;;14.20;94.49;100304.88;5055264;28;20943;-54
2021/10/06 08:24:31;;;;;;;0.30;0.20;;;;;;;14.52;95.12;100311.50;5055196;28;20454;-54
2021/10/06 08:26:58;;;;;;;0.30;0.20;;;;;;;14.43;93.17;100317.25;5054922;28;20569;-54
2021/10/06 08:29:24;;;;;;;0.30;0.20;;;;;;;14.52;93.63;100311.50;5055229;28;20572;-54
2021/10/06 08:31:52;;;;;;;0.30;0.20;;;;;;;14.58;93.14;100318.41;5054933;28;20971;-54
2021/10/06 08:34:19;;;;;;;0.30;0.20;;;;;;;14.45;92.68;100312.75;5055068;28;20989;-54
2021/10/06 08:36:46;;;;;;;0.30;0.20;;;;;;;14.78;91.81;100316.56;5054774;28;20859;-55
2021/10/06 08:39:13;;;;;;;0.30;0.20;;;;;;;14.71;91.36;100316.94;5055021;28;20477;-54
2021/10/06 08:41:40;;;;;;;0.30;0.20;;;;;;;14.78;90.98;100323.72;5054847;28;20544;-54
2021/10/06 08:44:07;;;;;;;0.30;0.20;;;;;;;14.76;90.05;100318.44;5054880;28;20956;-54
2021/10/06 08:46:39;;;;;;;0.30;0.20;;;;;;;14.68;90.80;100323.28;5051899;28;20833;-54
2021/10/06 08:49:06;;;;;;;1.07;1.07;;;;;;;14.94;90.10;100322.13;5054656;28;20476;-54
2021/10/06 08:51:33;;;;;;;0.30;0.20;;;;;;;14.78;91.40;100321.06;5054589;28;20466;-54
2021/10/06 08:54:00;;;;;;;0.30;0.20;;;;;;;15.01;90.53;100326.22;5054945;28;20512;-54
2021/10/06 08:56:29;;;;;;;0.30;0.20;;;;;;;15.03;90.06;100310.97;5054642;28;20879;-54
2021/10/06 08:58:56;;;;;;;0.30;0.20;;;;;;;14.84;89.17;100309.22;5054768;28;20474;-54
2021/10/06 09:01:28;;;;;;;0.30;0.20;;;;;;;15.10;89.09;100330.31;5054314;28;20466;-54
2021/10/06 09:03:57;;;;;;;0.30;0.20;;;;;;;15.28;87.28;100329.44;5054346;28;20817;-54
2021/10/06 09:06:50;;;;;;;0.30;0.20;;;;;;;15.26;87.19;100333.13;5054424;28;20469;-54
2021/10/06 09:09:20;;;;;;;0.30;0.20;;;;;;;15.00;87.69;100331.66;5050834;28;20482;-54
2021/10/06 09:11:50;;;;;;;0.30;0.20;;;;;;;15.00;88.52;100335.19;5054228;28;20499;-54
2021/10/06 09:14:17;;;;;;;0.30;0.20;;;;;;;15.41;88.34;100329.72;5054104;28;20814;-54
2021/10/06 09:16:45;;;;;;;0.30;0.20;;;;;;;15.45;88.34;100355.41;5044930;28;20463;-54
2021/10/06 09:19:32;;;;;;;0.30;0.20;;;;;;;15.34;87.88;100342.50;5052253;28;20458;-54
2021/10/06 09:21:59;;;;;;;0.40;0.40;;;;;;;15.17;87.68;100342.44;5052867;28;20504;-54
2021/10/06 09:24:48;;;;;;;0.30;0.20;;;;;;;15.65;87.05;100339.28;5054108;28;20451;-54
2021/10/06 09:27:20;;;;;;;0.30;0.20;;;;;;;15.63;86.12;100335.81;5053911;28;20461;-54
2021/10/06 09:29:52;;;;;;;0.30;0.20;;;;;;;15.58;86.83;100343.16;5053012;28;20463;-54
2021/10/06 09:32:30;;;;;;;0.30;0.20;;;;;;;15.66;87.10;100342.84;5053744;28;20447;-54
2021/10/06 09:35:15;;;;;;;0.40;0.40;;;;;;;15.68;86.35;100335.59;5053640;28;20454;-54
2021/10/06 09:37:48;;;;;;;0.30;0.20;;;;;;;15.60;86.89;100346.66;5054014;28;20879;-54
2021/10/06 09:40:18;;;;;;;0.30;0.20;;;;;;;15.79;85.38;100354.69;5053653;28;20569;-54
2021/10/06 09:42:53;;;;;;;0.30;0.20;;;;;;;15.62;85.78;100346.59;5053594;28;20482;-54
2021/10/06 09:45:23;;;;;;;0.30;0.20;;;;;;;15.68;87.08;100351.66;5053618;28;20447;-54
2021/10/06 09:48:00;;;;;;;0.30;0.20;;;;;;;15.46;86.47;100351.78;5051426;28;20544;-54
2021/10/06 09:50:28;;;;;;;0.30;0.20;;;;;;;15.31;88.03;100355.19;5053456;28;20520;-54
2021/10/06 09:52:55;;;;;;;0.40;0.37;;;;;;;15.25;89.62;100363.53;5053914;28;20509;-54
2021/10/06 09:55:21;;;;;;;0.30;0.20;;;;;;;15.31;90.46;100365.91;5053508;28;20944;-54
2021/10/06 09:57:53;;;;;;;0.30;0.20;;;;;;;15.05;90.57;100370.66;5053311;28;20471;-54
2021/10/06 10:00:23;;;;;;;0.30;0.20;;;;;;;15.03;91.57;100369.00;5053522;28;20840;-54
2021/10/06 10:02:50;;;;;;;0.40;0.40;;;;;;;14.80;91.09;100367.34;5053484;28;20455;-54
2021/10/06 10:05:17;;;;;;;0.30;0.20;;;;;;;14.95;91.29;100376.53;5052352;28;20474;-54
2021/10/06 10:07:44;;;;;;;0.30;0.20;;;;;;;14.86;93.34;100377.78;5053169;28;20508;-54
2021/10/06 10:10:12;;;;;;;0.30;0.20;;;;;;;14.70;95.85;100377.59;5053161;28;20494;-54
2021/10/06 10:12:41;;;;;;;0.30;0.20;;;;;;;14.73;97.89;100377.47;5052982;28;20497;-54
2021/10/06 10:15:10;;;;;;;0.30;0.20;;;;;;;14.77;98.51;100375.50;5053160;28;21003;-54
2021/10/06 10:17:37;;;;;;;0.30;0.20;;;;;;;14.56;99.72;100387.16;5041160;28;20477;-53
2021/10/06 10:20:11;;;;;;;0.53;0.53;;;;;;;14.67;98.10;100392.94;5053152;28;20528;-54
2021/10/06 10:22:45;;;;;;;0.30;0.20;;;;;;;14.58;98.34;100398.69;5052867;28;20477;-54
2021/10/06 10:25:21;;;;;;;0.30;0.20;;;;;;;14.60;97.21;100413.72;5051655;28;20455;-54
2021/10/06 10:28:16;;;;;;;0.30;0.20;;;;;;;14.48;96.08;100409.75;5052003;28;20928;-54
2021/10/06 10:30:54;;;;;;;0.30;0.20;;;;;;;14.70;96.11;100399.00;5053012;28;20474;-54
2021/10/06 10:33:44;;;;;;;2.00;0.80;;;;;;;15.00;96.05;100402.13;5052521;28;20936;-54
2021/10/06 10:36:29;;;;;;;0.30;0.30;;;;;;;14.66;97.66;100402.72;5052873;28;20439;-55
2021/10/06 10:38:56;;;;;;;0.30;0.20;;;;;;;15.01;97.74;100406.53;5026650;28;20454;-55
2021/10/06 10:41:48;;;;;;;0.43;0.40;;;;;;;14.94;96.98;100413.13;5052314;28;20618;-55
2021/10/06 10:44:37;;;;;;;0.30;0.20;;;;;;;14.43;95.97;100405.53;5052557;28;20450;-54
2021/10/06 10:47:05;;;;;;;0.30;0.20;;;;;;;14.47;95.88;100404.47;5050128;28;20935;-54
2021/10/06 10:49:52;;;;;;;0.30;0.20;;;;;;;14.39;95.52;100396.75;5052153;28;20853;-54
2021/10/06 10:52:47;;;;;;;0.30;0.20;;;;;;;14.66;95.06;100400.06;5052403;28;20500;-54
2021/10/06 10:55:37;;;;;;;0.30;0.20;;;;;;;14.68;95.98;100402.69;5052494;28;20940;-54
2021/10/06 10:58:33;;;;;;;0.33;0.27;;;;;;;14.81;95.03;100401.22;5052081;28;20951;-54
2021/10/06 11:01:05;;;;;;;0.30;0.20;;;;;;;14.76;93.81;100401.41;5052127;28;20506;-55
2021/10/06 11:03:33;;;;;;;0.30;0.20;;;;;;;14.74;94.27;100405.97;5052361;28;20443;-54
2021/10/06 11:06:01;;;;;;;0.30;0.20;;;;;;;14.80;93.54;100404.81;5052246;28;20450;-54
2021/10/06 11:08:29;;;;;;;1.63;1.53;;;;;;;15.05;92.84;100399.22;5052152;28;20490;-54
2021/10/06 11:11:08;;;;;;;0.30;0.20;;;;;;;15.19;92.59;100393.25;5051961;28;20470;-54
2021/10/06 11:13:43;;;;;;;0.30;0.20;;;;;;;15.25;92.57;100398.34;5052429;28;20478;-54
2021/10/06 11:16:11;;;;;;;0.30;0.20;;;;;;;15.36;90.79;100388.00;5047571;28;20451;-55
2021/10/06 11:18:43;;;;;;;0.30;0.20;;;;;;;15.47;90.59;100383.00;5045635;28;20478;-54
2021/10/06 11:21:11;;;;;;;0.30;0.20;;;;;;;15.38;89.83;100380.75;5050825;28;20995;-54
2021/10/06 11:23:43;;;;;;;0.30;0.20;;;;;;;15.48;91.22;100381.19;5051836;28;20513;-55
2021/10/06 11:26:10;;;;;;;0.30;0.20;;;;;;;15.38;94.23;100389.66;5052320;28;20524;-55